Time;durP1;ratioP1;P1;durP2;ratioP2;P2;SDS_P1;SDS_P2;PMS_P1;PMS_P2;Temp;Humidity;BMP_temperature;BMP_pressure;BME280_temperature;BME280_humidity;BME280_pressure;Samples;Min_cycle;Max_cycle;Signal;HPM_P1;HPM_P2
2023/04/11 00:01:59;;;;;;;2.30;2.00;;;13.00;99.90;;;;;;5005711;28;20737;-83
2023/04/11 00:04:25;;;;;;;1.83;1.67;;;12.80;99.90;;;;;;5002955;28;20191;-82
2023/04/11 00:06:50;;;;;;;2.30;1.50;;;12.80;99.90;;;;;;5006084;28;20187;-83
2023/04/11 00:09:16;;;;;;;4.27;1.97;;;12.70;99.90;;;;;;5002348;28;21016;-82
2023/04/11 00:11:42;;;;;;;4.97;2.03;;;12.60;99.90;;;;;;5001080;28;20216;-84
2023/04/11 00:14:07;;;;;;;5.13;2.63;;;12.50;99.90;;;;;;5001046;28;20178;-83
2023/04/11 00:16:34;;;;;;;3.63;2.00;;;12.50;99.90;;;;;;5001625;28;20537;-83
2023/04/11 00:19:00;;;;;;;2.95;2.10;;;12.50;99.90;;;;;;5003228;28;20192;-83
2023/04/11 00:21:26;;;;;;;2.23;1.93;;;;;;;;;;5004038;28;20289;-83
2023/04/11 00:23:52;;;;;;;6.13;2.60;;;12.50;99.90;;;;;;5000272;28;20186;-84
2023/04/11 00:26:18;;;;;;;4.57;1.90;;;;;;;;;;5002169;28;20921;-83
2023/04/11 00:28:44;;;;;;;2.30;1.70;;;12.50;99.90;;;;;;5002152;28;20186;-84
2023/04/11 00:31:11;;;;;;;16.23;3.80;;;12.50;99.90;;;;;;5018002;28;20465;-83
2023/04/11 00:33:36;;;;;;;2.65;1.42;;;12.50;99.90;;;;;;5005215;28;20224;-82
2023/04/11 00:36:02;;;;;;;3.03;2.20;;;12.50;99.90;;;;;;5004388;28;20256;-83
2023/04/11 00:38:27;;;;;;;5.00;1.97;;;12.60;99.90;;;;;;5005457;28;20229;-82
2023/04/11 00:40:53;;;;;;;2.70;2.17;;;12.60;99.90;;;;;;5002337;28;20657;-82
2023/04/11 00:43:19;;;;;;;7.63;2.67;;;12.50;99.90;;;;;;5005353;28;20193;-83
2023/04/11 00:45:44;;;;;;;2.30;1.53;;;12.50;99.90;;;;;;5000663;28;20183;-83
2023/04/11 00:48:10;;;;;;;10.40;2.13;;;12.40;99.90;;;;;;5003852;28;21656;-82
2023/04/11 00:50:39;;;;;;;2.03;1.10;;;12.30;99.90;;;;;;5007297;28;20320;-81
2023/04/11 00:53:05;;;;;;;2.55;1.90;;;12.30;99.90;;;;;;5005515;28;20183;-82
2023/04/11 00:55:31;;;;;;;6.53;1.90;;;12.20;99.90;;;;;;5004487;28;20194;-81
2023/04/11 00:57:57;;;;;;;4.80;1.70;;;12.10;99.90;;;;;;5007365;28;20170;-81
2023/04/11 01:00:23;;;;;;;2.20;1.43;;;11.90;99.90;;;;;;5004719;28;20221;-81
2023/04/11 01:02:49;;;;;;;2.13;1.92;;;11.70;99.90;;;;;;5002994;28;20329;-80
2023/04/11 01:05:15;;;;;;;5.57;2.27;;;11.50;99.90;;;;;;5019647;28;20392;-82
2023/04/11 01:07:45;;;;;;;6.05;2.83;;;11.40;99.90;;;;;;5003165;28;20209;-82
2023/04/11 01:10:12;;;;;;;7.10;1.77;;;11.20;99.90;;;;;;5001077;28;20207;-82
2023/04/11 01:12:39;;;;;;;2.70;2.08;;;11.20;99.90;;;;;;5001343;28;20194;-82
2023/04/11 01:15:05;;;;;;;3.13;2.72;;;11.00;99.90;;;;;;5015179;28;20194;-82
2023/04/11 01:17:31;;;;;;;6.72;2.80;;;10.90;99.90;;;;;;5004379;28;20185;-82
2023/04/11 01:19:57;;;;;;;3.97;3.00;;;10.80;99.90;;;;;;5000668;28;20293;-82
2023/04/11 01:22:24;;;;;;;4.78;3.05;;;10.70;99.90;;;;;;5003274;28;20269;-82
2023/04/11 01:24:50;;;;;;;4.47;2.53;;;10.70;99.90;;;;;;5015227;28;20198;-81
2023/04/11 01:27:16;;;;;;;3.20;2.40;;;10.60;99.90;;;;;;4997515;28;20538;-82
2023/04/11 01:29:41;;;;;;;4.40;2.70;;;10.50;99.90;;;;;;4999401;28;20230;-81
2023/04/11 01:32:07;;;;;;;5.20;2.80;;;10.50;99.90;;;;;;5015508;28;20260;-81
2023/04/11 01:34:36;;;;;;;4.50;2.93;;;10.50;99.90;;;;;;5002720;28;20195;-82
2023/04/11 01:37:02;;;;;;;5.25;2.65;;;10.40;99.90;;;;;;5001721;28;20755;-83
2023/04/11 01:39:27;;;;;;;4.00;1.77;;;10.40;99.90;;;;;;4999437;28;20242;-83
2023/04/11 01:41:54;;;;;;;10.00;2.60;;;;;;;;;;5001618;28;20202;-85
2023/04/11 01:44:20;;;;;;;3.10;1.65;;;10.20;99.90;;;;;;5004892;28;20189;-84
2023/04/11 01:46:46;;;;;;;1.77;1.40;;;10.10;99.90;;;;;;5005793;28;20187;-82
2023/04/11 01:49:16;;;;;;;3.08;1.90;;;10.10;99.90;;;;;;5006486;28;20203;-83
2023/04/11 01:51:42;;;;;;;3.60;1.92;;;10.00;99.90;;;;;;5004475;28;20182;-85
2023/04/11 01:54:07;;;;;;;1.83;1.00;;;10.00;99.90;;;;;;5004517;28;20195;-84
2023/04/11 01:56:33;;;;;;;2.00;1.20;;;;;;;;;;5019303;28;20221;-84
2023/04/11 01:59:00;;;;;;;3.70;1.20;;;9.80;99.90;;;;;;5006687;28;20677;-84
2023/04/11 02:01:25;;;;;;;1.52;1.00;;;9.80;99.90;;;;;;5007906;28;20457;-85
2023/04/11 02:03:51;;;;;;;2.10;0.90;;;9.80;99.90;;;;;;5008331;28;20186;-84
2023/04/11 02:06:17;;;;;;;2.20;1.17;;;;;;;;;;5005587;28;20668;-84
2023/04/11 02:08:42;;;;;;;0.80;0.80;;;9.70;99.90;;;;;;5007805;28;20193;-84
2023/04/11 02:11:09;;;;;;;2.37;0.90;;;9.60;99.90;;;;;;5022225;28;21463;-83
2023/04/11 02:13:34;;;;;;;1.80;0.90;;;9.60;99.90;;;;;;5006079;28;20442;-83
2023/04/11 02:16:05;;;;;;;1.13;1.00;;;9.60;99.90;;;;;;5004890;28;21740;-84
2023/04/11 02:18:31;;;;;;;2.15;0.82;;;9.60;99.90;;;;;;5005436;28;20804;-84
2023/04/11 02:20:57;;;;;;;1.10;1.00;;;;;;;;;;5008490;28;20294;-84
2023/04/11 02:23:22;;;;;;;1.48;0.85;;;9.60;99.90;;;;;;5002686;28;20210;-83
2023/04/11 02:25:48;;;;;;;2.63;1.07;;;9.60;99.90;;;;;;5005574;28;20187;-84
2023/04/11 02:28:13;;;;;;;5.30;1.03;;;9.60;99.90;;;;;;5004013;28;21187;-83
2023/04/11 02:30:39;;;;;;;2.27;1.40;;;9.60;99.90;;;;;;5001395;28;20198;-83
2023/04/11 02:33:05;;;;;;;1.03;0.90;;;9.60;99.90;;;;;;5001906;28;20179;-84
2023/04/11 02:35:30;;;;;;;2.90;1.20;;;9.60;99.90;;;;;;5005401;28;20458;-84
2023/04/11 02:37:56;;;;;;;3.07;1.10;;;9.50;99.90;;;;;;5004928;28;20183;-84
2023/04/11 02:40:21;;;;;;;2.40;1.07;;;9.60;99.90;;;;;;5002446;28;20202;-82
2023/04/11 02:42:47;;;;;;;3.57;1.10;;;9.50;99.90;;;;;;5003735;28;20659;-83
2023/04/11 02:45:12;;;;;;;3.80;1.00;;;9.60;99.90;;;;;;5003660;28;20324;-83
2023/04/11 02:47:38;;;;;;;1.03;0.80;;;9.60;99.90;;;;;;5003313;28;20194;-83
2023/04/11 02:50:04;;;;;;;2.05;1.35;;;9.70;99.90;;;;;;5019418;28;20195;-83
2023/04/11 02:52:32;;;;;;;1.88;1.00;;;9.70;99.90;;;;;;5003454;28;20202;-83
2023/04/11 02:54:57;;;;;;;2.42;0.80;;;9.70;99.90;;;;;;5007320;28;20250;-83
2023/04/11 02:57:23;;;;;;;2.33;1.10;;;9.70;99.90;;;;;;5019556;28;20237;-82
2023/04/11 02:59:49;;;;;;;1.13;0.90;;;9.60;99.90;;;;;;5000928;28;20199;-83
2023/04/11 03:02:15;;;;;;;1.63;1.33;;;9.60;99.90;;;;;;5000718;28;20238;-82
2023/04/11 03:04:40;;;;;;;1.07;0.60;;;9.60;99.90;;;;;;5002284;28;20206;-84
2023/04/11 03:07:06;;;;;;;3.50;1.20;;;9.50;99.90;;;;;;5005759;28;20198;-84
2023/04/11 03:09:31;;;;;;;1.40;1.07;;;9.50;99.90;;;;;;5006209;28;20214;-84
2023/04/11 03:11:57;;;;;;;2.43;1.13;;;9.50;99.90;;;;;;5021784;28;20186;-85
2023/04/11 03:14:22;;;;;;;3.50;1.37;;;9.50;99.90;;;;;;5005780;28;20174;-84
2023/04/11 03:16:48;;;;;;;2.03;1.23;;;9.50;99.90;;;;;;5004549;28;20262;-85
2023/04/11 03:19:13;;;;;;;1.70;1.07;;;9.50;99.90;;;;;;5007186;28;20645;-83
2023/04/11 03:21:40;;;;;;;4.17;1.50;;;9.50;99.90;;;;;;5003564;28;20210;-84
2023/04/11 03:24:05;;;;;;;1.67;1.40;;;9.50;99.90;;;;;;5002859;28;20187;-84
2023/04/11 03:26:31;;;;;;;9.47;2.60;;;9.50;99.90;;;;;;5003077;28;20201;-82
2023/04/11 03:28:57;;;;;;;1.73;1.20;;;9.60;99.90;;;;;;5001611;28;20218;-82
2023/04/11 03:31:23;;;;;;;1.25;0.85;;;9.60;99.90;;;;;;5004179;28;20175;-83
2023/04/11 03:33:49;;;;;;;1.80;1.23;;;9.60;99.90;;;;;;5004103;28;20220;-84
2023/04/11 03:36:15;;;;;;;3.23;1.40;;;9.60;99.90;;;;;;5004785;28;20477;-84
2023/04/11 03:38:41;;;;;;;10.15;1.60;;;9.60;99.90;;;;;;5002912;28;20246;-84
2023/04/11 03:41:06;;;;;;;1.33;1.13;;;9.50;99.90;;;;;;5002286;28;20242;-84
2023/04/11 03:43:32;;;;;;;1.60;1.40;;;9.50;99.90;;;;;;5004356;28;20243;-84
2023/04/11 03:45:57;;;;;;;1.70;1.40;;;9.40;99.90;;;;;;5005262;28;20877;-84
2023/04/11 03:48:28;;;;;;;2.10;1.03;;;9.40;99.90;;;;;;5002465;28;20245;-84
2023/04/11 03:50:54;;;;;;;1.70;1.10;;;9.20;99.90;;;;;;5016976;28;20245;-84
2023/04/11 03:53:19;;;;;;;14.43;4.10;;;9.20;99.90;;;;;;5003359;28;20736;-84
2023/04/11 03:55:45;;;;;;;4.13;1.47;;;9.20;99.90;;;;;;5002822;28;20468;-84
2023/04/11 03:58:11;;;;;;;2.27;1.30;;;9.10;99.90;;;;;;5001923;28;20179;-84
2023/04/11 04:00:36;;;;;;;0.90;0.90;;;9.00;99.90;;;;;;5016544;28;20195;-83
2023/04/11 04:03:02;;;;;;;3.00;1.13;;;8.90;99.90;;;;;;5002824;28;20984;-85
2023/04/11 04:05:28;;;;;;;2.83;1.30;;;;;;;;;;5001321;28;20531;-84
2023/04/11 04:07:54;;;;;;;6.80;1.00;;;;;;;;;;5004173;28;20200;-85
2023/04/11 04:10:19;;;;;;;1.73;1.33;;;8.70;99.90;;;;;;5018106;28;20974;-86
2023/04/11 04:12:45;;;;;;;3.00;0.80;;;8.70;99.90;;;;;;5000114;28;20448;-84
2023/04/11 04:15:13;;;;;;;2.57;1.00;;;8.70;99.90;;;;;;5023319;28;20312;-83
2023/04/11 04:17:39;;;;;;;3.15;0.88;;;8.70;99.90;;;;;;5005387;28;20643;-84
2023/04/11 04:20:06;;;;;;;2.45;1.13;;;8.70;99.90;;;;;;5006356;28;20202;-86
2023/04/11 04:22:32;;;;;;;13.57;2.33;;;;;;;;;;5013824;28;20205;-87
2023/04/11 04:24:58;;;;;;;5.57;1.58;;;8.70;99.90;;;;;;5003964;28;20264;-83
2023/04/11 04:27:24;;;;;;;5.60;1.20;;;;;;;;;;5008856;28;20603;-84
2023/04/11 04:29:51;;;;;;;1.48;0.50;;;8.70;99.90;;;;;;5010092;28;20234;-84
2023/04/11 04:32:21;;;;;;;3.33;0.95;;;8.70;99.90;;;;;;5010129;28;20202;-83
2023/04/11 04:34:49;;;;;;;1.90;1.20;;;8.60;99.90;;;;;;5014113;28;20186;-85
2023/04/11 04:37:22;;;;;;;2.80;0.70;;;8.60;99.90;;;;;;5013881;28;20245;-85
2023/04/11 04:39:55;;;;;;;1.08;1.05;;;8.60;99.90;;;;;;5016379;28;20221;-84
2023/04/11 04:42:28;;;;;;;3.42;1.17;;;8.60;99.90;;;;;;5013377;28;20206;-84
2023/04/11 04:44:55;;;;;;;1.90;0.90;;;8.60;99.90;;;;;;5010192;28;20175;-85
2023/04/11 04:47:23;;;;;;;1.10;1.00;;;8.60;99.90;;;;;;5018172;28;20175;-85
2023/04/11 04:49:56;;;;;;;1.90;0.63;;;8.60;99.90;;;;;;5025230;28;20576;-85
2023/04/11 04:52:23;;;;;;;2.20;0.90;;;8.60;99.90;;;;;;5009829;28;20183;-85
2023/04/11 04:54:49;;;;;;;2.10;0.60;;;8.60;99.90;;;;;;5013457;28;20179;-83
2023/04/11 04:57:14;;;;;;;3.33;0.63;;;8.60;99.90;;;;;;5007314;28;20189;-83
2023/04/11 04:59:40;;;;;;;6.73;0.80;;;;;;;;;;5012858;28;20543;-84
2023/04/11 05:02:06;;;;;;;1.23;0.60;;;8.50;99.90;;;;;;5011111;28;20202;-83
2023/04/11 05:04:33;;;;;;;2.80;0.95;;;8.50;99.90;;;;;;5013176;28;20433;-84
2023/04/11 05:06:59;;;;;;;1.75;1.02;;;8.50;99.90;;;;;;5023441;28;20179;-84
2023/04/11 05:09:24;;;;;;;3.35;1.10;;;8.50;99.90;;;;;;5025676;28;21030;-83
2023/04/11 05:11:50;;;;;;;4.13;0.90;;;8.50;99.90;;;;;;5013379;28;20190;-83
2023/04/11 05:14:16;;;;;;;3.57;1.70;;;8.40;99.90;;;;;;5012696;28;20879;-83
2023/04/11 05:16:42;;;;;;;2.57;1.07;;;8.50;99.90;;;;;;5005166;28;20189;-83
2023/04/11 05:19:08;;;;;;;1.70;0.80;;;8.40;99.90;;;;;;5012242;28;20206;-84
2023/04/11 05:21:33;;;;;;;3.00;1.60;;;8.40;99.90;;;;;;5013319;28;20669;-84
2023/04/11 05:23:59;;;;;;;2.00;1.07;;;8.40;99.90;;;;;;5014007;28;20262;-85
2023/04/11 05:26:25;;;;;;;3.43;1.17;;;8.30;99.90;;;;;;5018630;28;20178;-84
2023/04/11 05:28:50;;;;;;;2.17;1.07;;;8.20;99.90;;;;;;5021610;28;20185;-84
2023/04/11 05:31:16;;;;;;;2.60;1.30;;;;;;;;;;5023715;28;20178;-83
2023/04/11 05:33:42;;;;;;;1.98;0.82;;;8.20;99.90;;;;;;5030881;28;20183;-84
2023/04/11 05:36:12;;;;;;;2.00;0.83;;;8.20;99.90;;;;;;5023890;28;20206;-84
2023/04/11 05:38:38;;;;;;;2.92;1.23;;;;;;;;;;5025278;28;20273;-84
2023/04/11 05:41:04;;;;;;;1.17;1.00;;;8.20;99.90;;;;;;5023086;28;20209;-84
2023/04/11 05:43:30;;;;;;;1.63;0.70;;;8.20;99.90;;;;;;5026554;28;20230;-84
2023/04/11 05:45:56;;;;;;;1.60;0.50;;;8.10;99.90;;;;;;5028113;28;20190;-84
2023/04/11 05:48:22;;;;;;;1.13;0.87;;;8.10;99.90;;;;;;5028884;28;20205;-83
2023/04/11 05:50:51;;;;;;;1.30;1.05;;;8.20;99.90;;;;;;5026548;28;20449;-84
2023/04/11 05:53:17;;;;;;;3.58;0.80;;;;;;;;;;5014082;28;20182;-84
2023/04/11 05:55:43;;;;;;;1.33;0.70;;;8.20;99.90;;;;;;5021555;28;20210;-83
2023/04/11 05:58:09;;;;;;;2.93;0.97;;;8.30;99.90;;;;;;5019117;28;20409;-84
2023/04/11 06:00:36;;;;;;;4.90;1.15;;;8.30;99.90;;;;;;5034558;28;20760;-82
2023/04/11 06:03:03;;;;;;;11.80;2.08;;;8.40;99.90;;;;;;5013436;28;20198;-83
2023/04/11 06:05:32;;;;;;;3.55;0.90;;;8.40;99.90;;;;;;5010995;28;20222;-83
2023/04/11 06:07:59;;;;;;;0.90;0.70;;;8.40;99.90;;;;;;5015368;28;20186;-83
2023/04/11 06:10:25;;;;;;;1.98;0.75;;;8.40;99.90;;;;;;5023235;28;20191;-83
2023/04/11 06:12:51;;;;;;;3.70;0.95;;;8.40;99.90;;;;;;5012852;28;20197;-84
2023/04/11 06:15:17;;;;;;;4.50;0.73;;;8.50;99.90;;;;;;5017546;28;20243;-84
2023/04/11 06:17:43;;;;;;;3.97;0.97;;;8.50;99.90;;;;;;5016402;28;20234;-84
2023/04/11 06:20:09;;;;;;;2.35;0.77;;;8.50;99.90;;;;;;5020430;28;20198;-84
2023/04/11 06:22:35;;;;;;;1.77;1.00;;;8.50;99.90;;;;;;5025944;28;20202;-84
2023/04/11 06:25:01;;;;;;;1.20;0.67;;;8.60;99.90;;;;;;5020903;28;20306;-84
2023/04/11 06:27:27;;;;;;;12.33;0.90;;;;;;;;;;5015722;28;20464;-83
2023/04/11 06:29:53;;;;;;;0.90;0.73;;;;;;;;;;5033362;28;20969;-83
2023/04/11 06:32:19;;;;;;;4.35;0.52;;;;;;;;;;5012721;28;20429;-83
2023/04/11 06:34:45;;;;;;;1.77;0.60;;;8.70;99.90;;;;;;5032392;28;20220;-83
2023/04/11 06:37:11;;;;;;;3.40;0.87;;;;;;;;;;5019216;28;20444;-83
2023/04/11 06:39:36;;;;;;;3.50;0.90;;;8.70;99.90;;;;;;5033960;28;20273;-83
2023/04/11 06:42:02;;;;;;;0.73;0.57;;;8.70;99.90;;;;;;5028989;28;20489;-83
2023/04/11 06:44:28;;;;;;;1.08;0.85;;;;;;;;;;5013027;28;20390;-83
2023/04/11 06:46:54;;;;;;;2.75;0.90;;;8.90;99.90;;;;;;5016681;28;20869;-84
2023/04/11 06:49:20;;;;;;;2.20;0.60;;;8.90;99.90;;;;;;5026824;28;20199;-84
2023/04/11 06:51:48;;;;;;;1.60;0.67;;;9.00;99.90;;;;;;5012113;28;20211;-83
2023/04/11 06:54:13;;;;;;;5.72;1.00;;;;;;;;;;5028814;28;20178;-83
2023/04/11 06:56:39;;;;;;;4.10;1.23;;;;;;;;;;5020975;28;20552;-83
2023/04/11 06:59:05;;;;;;;2.10;0.93;;;9.00;99.90;;;;;;5016344;28;20952;-84
2023/04/11 07:01:34;;;;;;;0.63;0.60;;;9.10;99.90;;;;;;5016287;28;20532;-82
2023/04/11 07:04:00;;;;;;;3.83;1.20;;;9.20;99.90;;;;;;5014420;28;20175;-84
2023/04/11 07:06:27;;;;;;;1.85;0.98;;;9.20;99.90;;;;;;5017529;28;20809;-84
2023/04/11 07:08:52;;;;;;;4.20;0.80;;;10.10;99.90;;;;;;5016090;28;20741;-84
2023/04/11 07:11:18;;;;;;;7.40;0.70;;;10.10;99.90;;;;;;5019359;28;20195;-84
2023/04/11 07:13:44;;;;;;;3.70;1.23;;;;;;;;;;5015816;28;20194;-84
2023/04/11 07:16:09;;;;;;;10.27;1.50;;;11.70;99.90;;;;;;5018338;28;20242;-84
2023/04/11 07:18:36;;;;;;;5.53;1.30;;;11.40;99.90;;;;;;5019373;28;20425;-84
2023/04/11 07:21:01;;;;;;;3.65;1.33;;;10.60;99.90;;;;;;5019908;28;20224;-83
2023/04/11 07:23:27;;;;;;;5.33;2.00;;;10.50;99.90;;;;;;5016756;28;20232;-84
2023/04/11 07:25:54;;;;;;;3.13;1.03;;;;;;;;;;5017181;28;20195;-84
2023/04/11 07:28:20;;;;;;;3.83;1.48;;;10.70;99.90;;;;;;5011487;28;20427;-84
2023/04/11 07:30:46;;;;;;;6.13;1.20;;;;;;;;;;5012525;28;20854;-84
2023/04/11 07:33:12;;;;;;;3.25;1.40;;;10.70;99.90;;;;;;5015647;28;20446;-84
2023/04/11 07:35:37;;;;;;;3.35;0.93;;;10.90;99.90;;;;;;5016379;28;20209;-83
2023/04/11 07:38:03;;;;;;;5.27;1.50;;;;;;;;;;5030201;28;20190;-84
2023/04/11 07:40:30;;;;;;;5.43;1.50;;;11.70;99.90;;;;;;5013553;28;20202;-83
2023/04/11 07:42:56;;;;;;;3.97;1.50;;;11.80;99.90;;;;;;5017764;28;20457;-84
2023/04/11 07:45:21;;;;;;;12.13;1.17;;;11.70;99.90;;;;;;5022545;28;20204;-83
2023/04/11 07:47:47;;;;;;;6.23;1.20;;;11.80;99.90;;;;;;5017744;28;20648;-85
2023/04/11 07:50:13;;;;;;;2.97;1.17;;;11.90;99.90;;;;;;5025509;28;20537;-85
2023/04/11 07:52:39;;;;;;;5.73;2.30;;;;;;;;;;5023098;28;20270;-85
2023/04/11 07:55:05;;;;;;;8.50;2.00;;;11.70;99.90;;;;;;5023960;28;20718;-85
2023/04/11 07:57:30;;;;;;;6.57;1.55;;;;;;;;;;5023669;28;20417;-85
2023/04/11 07:59:59;;;;;;;0.93;0.93;;;11.70;99.90;;;;;;5022594;28;20229;-85
2023/04/11 08:02:25;;;;;;;4.10;1.00;;;11.20;99.90;;;;;;5024508;28;20475;-85
2023/04/11 08:04:51;;;;;;;4.63;1.70;;;;;;;;;;5024495;28;20228;-85
2023/04/11 08:07:16;;;;;;;4.07;1.70;;;12.10;99.90;;;;;;5023239;28;20703;-85
2023/04/11 08:09:42;;;;;;;5.40;1.77;;;12.10;99.90;;;;;;5019024;28;20855;-85
2023/04/11 08:12:08;;;;;;;3.23;1.13;;;;;;;;;;5014854;28;20236;-85
2023/04/11 08:14:34;;;;;;;7.60;1.63;;;11.00;99.90;;;;;;5024859;28;20174;-84
2023/04/11 08:17:00;;;;;;;4.32;1.20;;;;;;;;;;5024138;28;20208;-85
2023/04/11 08:19:26;;;;;;;5.72;1.42;;;;;;;;;;5024124;28;20729;-85
2023/04/11 08:21:52;;;;;;;3.83;1.43;;;11.60;99.90;;;;;;5022122;28;20236;-84
2023/04/11 08:24:18;;;;;;;6.35;1.60;;;11.60;99.90;;;;;;5025094;28;20449;-85
2023/04/11 08:26:44;;;;;;;2.63;0.77;;;;;;;;;;5023335;28;20182;-85
2023/04/11 08:29:11;;;;;;;4.82;2.05;;;;;;;;;;5023313;28;20432;-85
2023/04/11 08:31:42;;;;;;;4.57;1.15;;;12.20;99.90;;;;;;5023432;28;20202;-85
2023/04/11 08:34:08;;;;;;;3.08;1.10;;;;;;;;;;5023144;28;20234;-85
2023/04/11 08:36:34;;;;;;;11.70;1.90;;;;;;;;;;5022945;28;20174;-84
2023/04/11 08:39:00;;;;;;;5.60;1.00;;;;;;;;;;5023009;28;20959;-85
2023/04/11 08:41:29;;;;;;;8.63;1.40;;;12.10;99.90;;;;;;5023756;28;20496;-85
2023/04/11 08:43:55;;;;;;;4.45;1.55;;;12.20;99.90;;;;;;5022766;28;20178;-85
2023/04/11 08:46:21;;;;;;;4.10;1.55;;;;;;;;;;5024072;28;20170;-85
2023/04/11 08:48:47;;;;;;;5.43;1.23;;;;;;;;;;5024072;28;20210;-85
2023/04/11 08:51:21;;;;;;;3.07;1.47;;;13.80;99.90;;;;;;5023296;28;20410;-85
2023/04/11 08:53:46;;;;;;;3.90;1.97;;;13.70;99.90;;;;;;5022965;28;20422;-85
2023/04/11 08:56:18;;;;;;;7.97;1.00;;;13.00;99.90;;;;;;5024781;28;20414;-85
2023/04/11 08:58:44;;;;;;;5.60;1.17;;;;;;;;;;5025137;28;20726;-85
2023/04/11 09:01:26;;;;;;;5.37;1.83;;;11.40;99.90;;;;;;5023943;28;20213;-85
2023/04/11 09:03:51;;;;;;;7.38;1.10;;;11.30;99.90;;;;;;5023899;28;20398;-85
2023/04/11 09:06:17;;;;;;;4.33;1.33;;;11.30;99.90;;;;;;5023573;28;20233;-85
2023/04/11 09:08:42;;;;;;;2.67;1.53;;;11.10;99.90;;;;;;5027844;28;20692;-85
2023/04/11 09:11:08;;;;;;;7.77;1.33;;;10.60;99.90;;;;;;5027924;28;20195;-84
2023/04/11 09:13:33;;;;;;;4.67;1.10;;;10.50;99.90;;;;;;5027621;28;20167;-85
2023/04/11 09:16:12;;;;;;;3.97;1.40;;;10.90;99.90;;;;;;5027179;28;20198;-85
2023/04/11 09:18:43;;;;;;;6.05;1.48;;;13.60;99.90;;;;;;5025224;28;20178;-84
2023/04/11 09:21:11;;;;;;;3.08;1.00;;;13.70;99.90;;;;;;5025740;28;20198;-85
2023/04/11 09:23:37;;;;;;;7.57;1.63;;;;;;;;;;5024516;28;20167;-85
2023/04/11 09:26:07;;;;;;;4.90;1.13;;;14.00;99.90;;;;;;5025910;28;20190;-85
2023/04/11 09:28:52;;;;;;;5.47;1.30;;;14.70;99.90;;;;;;5026917;28;20402;-85
2023/04/11 09:31:18;;;;;;;5.57;1.10;;;14.70;99.90;;;;;;5028293;28;20421;-85
2023/04/11 09:33:54;;;;;;;4.83;1.80;;;13.00;99.90;;;;;;5026919;28;20257;-84
2023/04/11 09:36:22;;;;;;;9.70;1.73;;;12.50;99.90;;;;;;5026815;28;20413;-84
2023/04/11 09:38:48;;;;;;;4.30;1.08;;;;;;;;;;5026575;28;20174;-85
2023/04/11 09:41:14;;;;;;;10.03;1.70;;;12.00;99.90;;;;;;5028097;28;20204;-85
2023/04/11 09:43:50;;;;;;;5.72;1.40;;;11.90;99.90;;;;;;5026057;28;20437;-84
2023/04/11 09:46:19;;;;;;;5.18;1.30;;;11.90;99.90;;;;;;5026648;28;20179;-84
2023/04/11 09:48:45;;;;;;;5.30;1.58;;;;;;;;;;5025329;28;20171;-84
2023/04/11 09:51:11;;;;;;;1.85;1.23;;;;;;;;;;5028544;28;20206;-84
2023/04/11 09:53:37;;;;;;;6.33;1.53;;;13.10;99.90;;;;;;5028261;28;20182;-85
2023/04/11 09:56:05;;;;;;;6.07;1.63;;;13.60;99.90;;;;;;5028358;28;20418;-85
2023/04/11 09:58:32;;;;;;;4.70;1.55;;;13.00;99.90;;;;;;5028292;28;20170;-85
2023/04/11 10:00:59;;;;;;;2.28;1.10;;;13.10;99.90;;;;;;5026710;28;20199;-84
2023/04/11 10:03:26;;;;;;;8.45;1.48;;;;;;;;;;5028670;28;20617;-84
2023/04/11 10:05:53;;;;;;;2.70;1.30;;;13.40;99.90;;;;;;5027017;28;20178;-83
2023/04/11 10:08:31;;;;;;;2.97;1.30;;;13.40;99.90;;;;;;5028077;28;20181;-86
2023/04/11 10:10:57;;;;;;;8.52;1.42;;;;;;;;;;5027788;28;20213;-84
2023/04/11 10:13:37;;;;;;;4.60;1.52;;;12.30;99.90;;;;;;5028162;28;20178;-84
2023/04/11 10:16:08;;;;;;;3.97;1.05;;;12.40;99.90;;;;;;5027005;28;20174;-84
2023/04/11 10:18:35;;;;;;;2.83;1.00;;;12.00;99.90;;;;;;5026812;28;20166;-84
2023/04/11 10:21:00;;;;;;;11.52;2.72;;;12.40;99.90;;;;;;5028066;28;20190;-84
2023/04/11 10:23:27;;;;;;;4.27;1.10;;;;;;;;;;5028269;28;20181;-84
2023/04/11 10:25:59;;;;;;;3.33;1.15;;;13.50;99.90;;;;;;5026625;28;20414;-83
2023/04/11 10:28:37;;;;;;;9.02;1.40;;;13.90;99.90;;;;;;5027569;28;20232;-83
2023/04/11 10:31:12;;;;;;;7.00;1.38;;;13.20;99.90;;;;;;5026962;28;20193;-86
2023/04/11 10:33:39;;;;;;;2.80;1.08;;;13.00;99.90;;;;;;5026125;28;20158;-85
2023/04/11 10:36:11;;;;;;;4.07;1.60;;;12.70;99.90;;;;;;5025575;28;20183;-85
2023/04/11 10:38:40;;;;;;;7.50;1.40;;;13.20;99.90;;;;;;5026934;28;20190;-83
2023/04/11 10:41:24;;;;;;;5.35;1.40;;;13.10;99.90;;;;;;5028456;28;20262;-86
2023/04/11 10:43:50;;;;;;;2.10;1.33;;;;;;;;;;5025677;28;20173;-86
2023/04/11 10:46:20;;;;;;;3.10;0.85;;;13.30;99.90;;;;;;5025305;28;20631;-83
2023/04/11 10:48:57;;;;;;;9.13;2.25;;;13.30;99.90;;;;;;5028074;28;20214;-84
2023/04/11 10:51:25;;;;;;;3.25;1.38;;;13.40;99.90;;;;;;5029246;28;20234;-85
2023/04/11 10:53:51;;;;;;;2.63;1.10;;;;;;;;;;5026026;28;20730;-84
2023/04/11 10:56:39;;;;;;;1.95;1.00;;;13.10;99.90;;;;;;5026770;28;20174;-83
2023/04/11 10:59:04;;;;;;;12.98;1.73;;;12.20;99.90;;;;;;5043129;28;20182;-84
2023/04/11 11:01:30;;;;;;;2.70;1.10;;;;;;;;;;5026932;28;20304;-86
2023/04/11 11:03:56;;;;;;;10.33;1.00;;;12.20;99.90;;;;;;5042986;28;20213;-84
2023/04/11 11:06:22;;;;;;;4.27;1.27;;;13.20;99.90;;;;;;5026534;28;20475;-82
2023/04/11 11:08:48;;;;;;;9.52;1.45;;;;;;;;;;5028274;28;20473;-84
2023/04/11 11:11:15;;;;;;;5.40;1.17;;;13.60;99.90;;;;;;5043267;28;20186;-84
2023/04/11 11:13:50;;;;;;;4.20;1.67;;;13.60;99.90;;;;;;5027072;28;20448;-84
2023/04/11 11:16:20;;;;;;;3.35;1.00;;;13.60;99.90;;;;;;5027501;28;20174;-84
2023/04/11 11:18:50;;;;;;;3.97;1.10;;;12.80;99.90;;;;;;5027823;28;20170;-84
2023/04/11 11:21:23;;;;;;;5.57;1.55;;;12.70;99.90;;;;;;5012751;28;21099;-81
2023/04/11 11:23:59;;;;;;;11.57;1.38;;;12.40;99.90;;;;;;5005720;28;20176;-81
2023/04/11 11:26:42;;;;;;;6.00;1.02;;;13.20;99.90;;;;;;5005460;28;20258;-80
2023/04/11 11:29:09;;;;;;;19.23;1.70;;;13.50;99.90;;;;;;5005195;28;20175;-81
2023/04/11 11:31:45;;;;;;;8.20;1.20;;;12.80;99.90;;;;;;5006154;28;20183;-80
2023/04/11 11:34:11;;;;;;;1.52;0.75;;;12.80;99.90;;;;;;5006553;28;20196;-80
2023/04/11 11:36:42;;;;;;;6.63;1.50;;;12.40;99.90;;;;;;5004326;28;20265;-80
2023/04/11 11:39:10;;;;;;;4.57;1.10;;;12.80;99.90;;;;;;5006101;28;20642;-81
2023/04/11 11:41:40;;;;;;;3.78;0.93;;;12.80;99.90;;;;;;5001658;28;20287;-80
2023/04/11 11:44:05;;;;;;;5.95;1.42;;;12.70;99.90;;;;;;5003205;28;20182;-80
2023/04/11 11:46:32;;;;;;;2.37;1.13;;;13.00;99.90;;;;;;5000706;28;20179;-80
2023/04/11 11:49:07;;;;;;;5.47;1.30;;;12.40;99.90;;;;;;5004420;28;20210;-80
2023/04/11 11:51:45;;;;;;;7.95;1.40;;;12.30;99.90;;;;;;5020197;28;20182;-80
2023/04/11 11:54:11;;;;;;;10.88;1.65;;;12.40;99.90;;;;;;5003860;28;20677;-80
2023/04/11 11:56:38;;;;;;;2.20;0.82;;;12.40;99.90;;;;;;5005260;28;20200;-83
2023/04/11 11:59:04;;;;;;;3.72;1.23;;;12.40;99.90;;;;;;4999903;28;20178;-83
2023/04/11 12:01:36;;;;;;;4.03;1.02;;;12.40;99.90;;;;;;5000585;28;20253;-82
2023/04/11 12:04:06;;;;;;;1.92;1.05;;;12.20;99.90;;;;;;5016639;28;20187;-82
2023/04/11 12:06:32;;;;;;;3.05;1.20;;;12.10;99.90;;;;;;5001690;28;20174;-82
2023/04/11 12:09:16;;;;;;;3.35;0.88;;;12.20;99.90;;;;;;5002596;28;20214;-82
2023/04/11 12:11:43;;;;;;;5.82;1.90;;;12.10;99.90;;;;;;5003791;28;20186;-82
2023/04/11 12:14:09;;;;;;;4.03;1.70;;;12.00;99.90;;;;;;5018399;28;20175;-81
2023/04/11 12:16:38;;;;;;;5.93;1.80;;;12.20;99.90;;;;;;5004884;28;20179;-82
2023/04/11 12:19:04;;;;;;;5.55;1.17;;;12.40;99.90;;;;;;5001762;28;20461;-81
2023/04/11 12:21:30;;;;;;;3.22;1.35;;;12.50;99.90;;;;;;5005363;28;20202;-82
2023/04/11 12:23:56;;;;;;;5.40;1.23;;;12.40;99.90;;;;;;5005536;28;20166;-82
2023/04/11 12:26:23;;;;;;;7.83;2.33;;;12.40;99.90;;;;;;5002655;28;20417;-82
2023/04/11 12:28:49;;;;;;;5.07;1.20;;;;;;;;;;5003411;28;20513;-81
2023/04/11 12:31:16;;;;;;;4.18;1.27;;;11.90;99.90;;;;;;5004371;28;20594;-81
2023/04/11 12:33:41;;;;;;;6.18;1.40;;;12.00;99.90;;;;;;5004896;28;20186;-81
2023/04/11 12:36:07;;;;;;;2.83;1.10;;;12.20;99.90;;;;;;5003392;28;20568;-82
2023/04/11 12:38:33;;;;;;;2.47;1.10;;;12.10;99.90;;;;;;5002328;28;20195;-81
2023/04/11 12:40:59;;;;;;;9.37;1.30;;;12.30;99.90;;;;;;5003425;28;21060;-81
2023/04/11 12:43:25;;;;;;;5.68;1.20;;;12.70;99.90;;;;;;5003009;28;20207;-82
2023/04/11 12:45:50;;;;;;;4.43;0.93;;;12.90;99.90;;;;;;5003611;28;20226;-81
2023/04/11 12:48:16;;;;;;;5.63;1.50;;;12.80;99.90;;;;;;5002205;28;20182;-81
2023/04/11 12:50:41;;;;;;;3.80;1.40;;;13.30;99.90;;;;;;5000028;28;20218;-81
2023/04/11 12:53:07;;;;;;;3.10;0.87;;;13.30;99.90;;;;;;5006684;28;20245;-82
2023/04/11 12:55:33;;;;;;;3.10;2.17;;;12.80;99.90;;;;;;5002468;28;20198;-81
2023/04/11 12:57:58;;;;;;;6.53;1.60;;;12.80;99.90;;;;;;5003992;28;20269;-82
2023/04/11 13:00:24;;;;;;;12.70;1.73;;;13.40;99.90;;;;;;5001872;28;20453;-83
2023/04/11 13:02:50;;;;;;;7.43;1.17;;;13.40;99.90;;;;;;5003765;28;20202;-81
2023/04/11 13:05:16;;;;;;;6.33;1.37;;;13.20;99.90;;;;;;5007954;28;20435;-82